createdAt,value
2019-03-05T00:01:17.594Z,9.93
2019-03-05T00:03:47.179Z,6.28
2019-03-05T00:06:16.788Z,6.50
2019-03-05T00:08:46.384Z,6.80
2019-03-05T00:11:15.959Z,8.25
2019-03-05T00:13:45.631Z,6.87
2019-03-05T00:16:15.211Z,8.28
2019-03-05T00:18:44.904Z,7.15
2019-03-05T00:21:14.482Z,6.87
2019-03-05T00:23:46.505Z,6.92
2019-03-05T00:26:18.231Z,7.37
2019-03-05T00:28:56.586Z,7.85
2019-03-05T00:31:29.222Z,6.33
2019-03-05T00:34:07.596Z,4.08
2019-03-05T00:36:40.931Z,8.70
2019-03-05T00:39:28.342Z,6.10
2019-03-05T00:42:06.572Z,4.95
2019-03-05T00:44:57.430Z,9.60
2019-03-05T00:47:49.663Z,11.93
2019-03-05T00:50:43.409Z,11.55
2019-03-05T00:56:13.158Z,4.15
2019-03-05T00:59:03.707Z,9.55
2019-03-05T01:01:42.279Z,4.75
2019-03-05T01:04:40.454Z,5.03
2019-03-05T01:07:10.078Z,7.97
2019-03-05T01:09:39.676Z,7.12
2019-03-05T01:12:09.781Z,7.53
2019-03-05T01:14:39.456Z,6.80
2019-03-05T01:17:09.104Z,5.97
2019-03-05T01:19:38.697Z,8.43
2019-03-05T01:22:08.286Z,11.75
2019-03-05T01:24:37.875Z,8.43
2019-03-05T01:27:07.570Z,11.12
2019-03-05T01:29:37.166Z,7.00
2019-03-05T01:32:24.895Z,8.70
2019-03-05T01:34:56.145Z,12.33
2019-03-05T01:37:25.794Z,10.70
2019-03-05T01:40:00.177Z,8.50
2019-03-05T01:42:29.982Z,13.38
2019-03-05T01:44:59.576Z,9.50
2019-03-05T01:47:29.149Z,6.95
2019-03-05T01:49:58.818Z,11.88
2019-03-05T01:52:28.404Z,11.35
2019-03-05T01:54:58.002Z,7.75
2019-03-05T01:57:27.583Z,10.95
2019-03-05T01:59:57.183Z,8.25
2019-03-05T02:02:26.774Z,11.88
2019-03-05T02:04:56.387Z,8.70
2019-03-05T02:07:26.022Z,8.28
2019-03-05T02:09:56.099Z,11.40
2019-03-05T02:12:25.683Z,7.92
2019-03-05T02:14:55.277Z,5.92
2019-03-05T02:17:24.858Z,9.50
2019-03-05T02:19:54.454Z,8.83
2019-03-05T02:22:27.106Z,9.30
2019-03-05T02:25:05.326Z,7.37
2019-03-05T02:28:03.954Z,6.35
2019-03-05T02:30:55.972Z,5.72
2019-03-05T02:33:34.649Z,8.20
2019-03-05T02:36:31.017Z,5.78
2019-03-05T02:39:06.140Z,10.78
2019-03-05T02:41:44.580Z,8.55
2019-03-05T02:44:32.047Z,9.38
2019-03-05T02:47:21.353Z,8.18
2019-03-05T02:50:06.167Z,8.65
2019-03-05T02:52:54.101Z,9.25
2019-03-05T02:55:32.305Z,6.87
2019-03-05T02:58:00.810Z,9.18
2019-03-05T03:00:32.035Z,9.68
2019-03-05T03:03:18.483Z,7.10
2019-03-05T03:05:49.763Z,9.78
2019-03-05T03:08:19.359Z,6.15
2019-03-05T03:10:48.943Z,5.95
2019-03-05T03:13:18.547Z,9.63
2019-03-05T03:15:48.135Z,6.17
2019-03-05T03:18:17.731Z,9.60
2019-03-05T03:20:47.309Z,9.65
2019-03-05T03:23:16.915Z,10.70
2019-03-05T03:25:46.503Z,6.92
2019-03-05T03:28:16.102Z,10.88
2019-03-05T03:30:45.702Z,3.98
2019-03-05T03:33:15.568Z,13.58
2019-03-05T03:35:45.156Z,4.78
2019-03-05T03:38:14.753Z,7.58
2019-03-05T03:40:44.348Z,5.45
2019-03-05T03:43:14.016Z,8.43
2019-03-05T03:45:43.609Z,6.37
2019-03-05T03:48:13.289Z,6.58
2019-03-05T03:50:42.891Z,8.80
2019-03-05T03:53:12.478Z,8.28
2019-03-05T03:55:42.071Z,8.38
2019-03-05T03:58:12.025Z,4.90
2019-03-05T04:00:41.615Z,6.92
2019-03-05T04:03:11.189Z,12.60
2019-03-05T04:05:40.792Z,4.15
2019-03-05T04:08:10.686Z,6.80
2019-03-05T04:10:40.462Z,7.35
2019-03-05T04:13:10.040Z,7.53
2019-03-05T04:15:39.640Z,12.63
2019-03-05T04:18:09.297Z,9.48
2019-03-05T04:20:40.548Z,6.72
2019-03-05T04:23:10.132Z,7.05
2019-03-05T04:25:39.795Z,7.50
2019-03-05T04:28:09.387Z,6.80
2019-03-05T04:30:38.998Z,7.92
2019-03-05T04:33:08.612Z,8.18
2019-03-05T04:35:38.211Z,10.80
2019-03-05T04:38:07.783Z,3.50
2019-03-05T04:40:37.379Z,5.75
2019-03-05T04:43:06.962Z,5.08
2019-03-05T04:45:56.129Z,5.05
2019-03-05T04:48:25.695Z,5.03
2019-03-05T04:50:59.623Z,4.95
2019-03-05T04:53:29.209Z,2.70
2019-03-05T04:55:58.880Z,2.95
2019-03-05T04:58:28.458Z,6.12
2019-03-05T05:00:58.135Z,3.62
2019-03-05T05:03:27.719Z,7.28
2019-03-05T05:05:57.397Z,2.33
2019-03-05T05:08:26.966Z,5.92
2019-03-05T05:10:56.643Z,4.70
2019-03-05T05:13:26.231Z,3.30
2019-03-05T05:15:55.843Z,3.70
2019-03-05T05:18:25.419Z,6.80
2019-03-05T05:20:55.011Z,2.67
2019-03-05T05:23:24.590Z,4.60
2019-03-05T05:25:54.173Z,3.05
2019-03-05T05:28:23.752Z,4.62
2019-03-05T05:30:53.351Z,2.22
2019-03-05T05:33:22.935Z,4.37
2019-03-05T05:35:52.525Z,2.33
2019-03-05T05:38:22.122Z,3.67
2019-03-05T05:40:51.699Z,2.02
2019-03-05T05:43:26.655Z,3.05
2019-03-05T05:45:56.382Z,3.17
2019-03-05T05:48:25.978Z,4.58
2019-03-05T05:50:55.555Z,4.08
2019-03-05T05:53:25.147Z,6.35
2019-03-05T05:55:54.749Z,6.05
2019-03-05T05:58:24.334Z,5.00
2019-03-05T06:00:55.571Z,7.00
2019-03-05T06:03:25.179Z,4.08
2019-03-05T06:05:54.770Z,5.25
2019-03-05T06:08:24.429Z,6.95
2019-03-05T06:10:54.038Z,11.30
2019-03-05T06:13:23.621Z,6.37
2019-03-05T06:15:53.277Z,8.25
2019-03-05T06:18:22.878Z,10.03
2019-03-05T06:20:52.459Z,5.12
2019-03-05T06:23:22.100Z,5.85
2019-03-05T06:25:51.671Z,7.25
2019-03-05T06:28:21.316Z,6.97
2019-03-05T06:30:50.931Z,6.72
2019-03-05T06:33:20.536Z,7.22
2019-03-05T06:35:50.118Z,13.65
2019-03-05T06:38:19.732Z,4.87
2019-03-05T06:40:49.456Z,11.38
2019-03-05T06:43:19.055Z,9.78
2019-03-05T06:45:48.656Z,6.78
2019-03-05T06:48:18.251Z,7.80
2019-03-05T06:50:47.853Z,10.08
2019-03-05T06:53:17.455Z,9.65
2019-03-05T06:55:47.056Z,7.53
2019-03-05T06:58:16.703Z,16.00
2019-03-05T07:00:46.387Z,8.88
2019-03-05T07:03:15.998Z,8.15
2019-03-05T07:06:22.088Z,11.85
2019-03-05T07:09:06.543Z,10.35
2019-03-05T07:11:42.045Z,9.43
2019-03-05T07:14:23.650Z,9.53
2019-03-05T07:16:59.042Z,11.28
2019-03-05T07:19:31.489Z,9.33
2019-03-05T07:22:09.590Z,6.00
2019-03-05T07:24:38.387Z,8.15
2019-03-05T07:27:08.541Z,9.15
2019-03-05T07:29:38.214Z,6.28
2019-03-05T07:32:07.956Z,7.75
2019-03-05T07:34:39.169Z,6.45
2019-03-05T07:37:10.651Z,13.35
2019-03-05T07:39:40.339Z,7.83
2019-03-05T07:42:10.071Z,7.80
2019-03-05T07:44:39.729Z,10.15
2019-03-05T07:47:09.301Z,9.28
2019-03-05T07:49:43.823Z,8.43
2019-03-05T07:52:10.167Z,7.50
2019-03-05T07:54:39.768Z,7.83
2019-03-05T07:57:09.346Z,5.97
2019-03-05T07:59:39.238Z,12.30
2019-03-05T08:02:08.800Z,11.75
2019-03-05T08:04:39.140Z,8.98
2019-03-05T08:07:08.809Z,10.70
2019-03-05T08:09:39.144Z,10.35
2019-03-05T08:12:17.851Z,8.38
2019-03-05T08:14:56.645Z,5.47
2019-03-05T08:17:26.375Z,6.15
2019-03-05T08:19:55.976Z,6.03
2019-03-05T08:22:25.575Z,8.80
2019-03-05T08:24:55.223Z,10.30
2019-03-05T08:27:24.919Z,13.38
2019-03-05T08:29:54.542Z,8.75
2019-03-05T08:32:24.216Z,5.72
2019-03-05T08:34:53.803Z,6.33
2019-03-05T08:37:23.681Z,7.92
2019-03-05T08:39:53.289Z,10.53
2019-03-05T08:42:22.895Z,7.03
2019-03-05T08:44:52.492Z,7.67
2019-03-05T08:47:23.720Z,9.73
2019-03-05T08:49:53.371Z,9.93
2019-03-05T08:52:23.019Z,13.45
2019-03-05T08:54:54.300Z,10.35
2019-03-05T08:57:23.895Z,7.62
2019-03-05T08:59:53.484Z,7.03
2019-03-05T09:02:23.096Z,6.42
2019-03-05T09:04:52.750Z,7.20
2019-03-05T09:07:22.443Z,6.03
2019-03-05T09:09:52.098Z,5.22
2019-03-05T09:12:21.700Z,8.43
2019-03-05T09:14:51.288Z,6.55
2019-03-05T09:17:20.960Z,5.33
2019-03-05T09:19:50.546Z,4.80
2019-03-05T09:22:20.143Z,4.28
2019-03-05T09:24:49.787Z,6.03
2019-03-05T09:27:19.467Z,8.45
2019-03-05T09:29:49.123Z,5.42
2019-03-05T09:32:18.653Z,5.85
2019-03-05T09:34:48.264Z,7.65
2019-03-05T09:37:17.856Z,2.85
2019-03-05T09:39:47.451Z,4.85
2019-03-05T09:42:17.364Z,13.60
2019-03-05T09:44:46.951Z,5.95
2019-03-05T09:47:16.660Z,2.90
2019-03-05T09:49:46.248Z,2.30
2019-03-05T09:52:15.828Z,2.50
2019-03-05T09:54:45.439Z,9.38
2019-03-05T09:57:15.023Z,3.50
2019-03-05T09:59:44.640Z,9.20
2019-03-05T10:02:14.588Z,3.27
2019-03-05T10:04:44.203Z,5.70
2019-03-05T10:07:18.959Z,6.92
2019-03-05T10:09:45.083Z,15.10
2019-03-05T10:12:14.672Z,7.87
2019-03-05T10:14:44.256Z,9.30
2019-03-05T10:17:13.858Z,4.03
2019-03-05T10:19:43.450Z,7.00
2019-03-05T10:22:13.144Z,5.30
2019-03-05T10:24:42.807Z,7.87
2019-03-05T10:27:13.431Z,4.05
2019-03-05T10:29:43.162Z,4.15
2019-03-05T10:32:12.804Z,7.12
2019-03-05T10:34:42.411Z,6.22
2019-03-05T10:37:18.741Z,5.75
2019-03-05T10:39:46.040Z,3.33
2019-03-05T10:42:15.861Z,4.25
2019-03-05T10:44:45.677Z,5.08
2019-03-05T10:47:15.330Z,5.62
2019-03-05T10:49:44.915Z,3.87
2019-03-05T10:52:14.597Z,9.38
2019-03-05T10:54:44.171Z,4.37
2019-03-05T10:57:16.300Z,5.47
2019-03-05T10:59:48.451Z,6.90
2019-03-05T11:02:20.091Z,3.75
2019-03-05T11:04:52.249Z,6.00
2019-03-05T11:07:21.071Z,9.30
2019-03-05T11:09:52.819Z,5.33
2019-03-05T11:12:22.490Z,7.20
2019-03-05T11:14:52.079Z,6.45
2019-03-05T11:17:21.694Z,5.35
2019-03-05T11:19:51.360Z,9.73
2019-03-05T11:22:20.971Z,4.87
2019-03-05T11:24:50.582Z,6.33
2019-03-05T11:27:20.178Z,9.93
2019-03-05T11:29:49.786Z,7.65
2019-03-05T11:32:19.514Z,5.80
2019-03-05T11:34:49.098Z,6.03
2019-03-05T11:37:19.318Z,6.95
2019-03-05T11:39:49.000Z,10.60
2019-03-05T11:42:18.592Z,6.87
2019-03-05T11:44:59.001Z,4.97
2019-03-05T11:47:19.431Z,5.12
2019-03-05T11:49:49.035Z,11.15
2019-03-05T11:52:18.643Z,6.72
2019-03-05T11:54:48.231Z,4.67
2019-03-05T11:57:55.307Z,7.10
2019-03-05T12:00:48.523Z,6.40
2019-03-05T12:03:18.248Z,8.93
2019-03-05T12:05:47.945Z,7.12
2019-03-05T12:08:17.530Z,9.33
2019-03-05T12:10:47.288Z,5.35
2019-03-05T12:13:16.958Z,9.43
2019-03-05T12:15:46.534Z,8.18
2019-03-05T12:18:16.220Z,7.80
2019-03-05T12:20:45.833Z,9.85
2019-03-05T12:23:15.443Z,8.33
2019-03-05T12:25:45.104Z,7.05
2019-03-05T12:28:14.703Z,10.70
2019-03-05T12:30:44.311Z,2.27
2019-03-05T12:33:13.904Z,10.90
2019-03-05T12:35:43.495Z,7.87
2019-03-05T12:38:13.086Z,8.58
2019-03-05T12:40:42.682Z,6.12
2019-03-05T12:43:12.285Z,7.42
2019-03-05T12:45:41.866Z,4.50
2019-03-05T12:48:11.462Z,7.65
2019-03-05T12:50:41.159Z,8.30
2019-03-05T12:53:10.910Z,5.45
2019-03-05T12:55:40.503Z,6.45
2019-03-05T12:58:10.183Z,9.08
2019-03-05T13:00:39.852Z,11.15
2019-03-05T13:03:09.506Z,9.85
2019-03-05T13:05:39.134Z,10.93
2019-03-05T13:08:08.744Z,8.53
2019-03-05T13:10:38.326Z,7.17
2019-03-05T13:13:10.406Z,7.65
2019-03-05T13:15:41.700Z,11.70
2019-03-05T13:18:11.315Z,13.00
2019-03-05T13:20:41.012Z,7.20
2019-03-05T13:23:10.737Z,6.45
2019-03-05T13:25:40.887Z,5.15
2019-03-05T13:28:10.527Z,8.25
2019-03-05T13:30:40.524Z,9.93
2019-03-05T13:33:10.204Z,12.15
2019-03-05T13:35:39.833Z,6.97
2019-03-05T13:38:10.538Z,8.60
2019-03-05T13:40:40.817Z,4.75
2019-03-05T13:43:10.681Z,9.20
2019-03-05T13:45:42.341Z,6.10
2019-03-05T13:48:19.597Z,7.03
2019-03-05T13:51:14.055Z,5.60
2019-03-05T13:54:00.029Z,9.23
2019-03-05T13:56:45.055Z,8.30
2019-03-05T13:59:36.613Z,7.47
2019-03-05T14:02:08.056Z,7.62
2019-03-05T14:04:40.716Z,7.58
2019-03-05T14:07:40.797Z,9.83
2019-03-05T14:10:10.447Z,9.15
2019-03-05T14:12:40.063Z,7.37
2019-03-05T14:15:11.611Z,10.53
2019-03-05T14:17:42.065Z,7.30
2019-03-05T14:20:14.972Z,11.68
2019-03-05T14:22:44.744Z,10.82
2019-03-05T14:25:16.071Z,6.72
2019-03-05T14:27:45.854Z,6.55
2019-03-05T14:30:21.172Z,7.47
2019-03-05T14:32:51.109Z,8.23
2019-03-05T14:35:21.531Z,6.65
2019-03-05T14:37:51.183Z,9.18
2019-03-05T14:40:26.701Z,9.85
2019-03-05T14:42:56.396Z,10.70
2019-03-05T14:45:28.521Z,6.05
2019-03-05T14:47:59.360Z,7.33
2019-03-05T14:50:29.099Z,8.90
2019-03-05T14:52:58.726Z,7.30
2019-03-05T14:55:28.443Z,12.23
2019-03-05T14:57:58.253Z,5.62
2019-03-05T15:00:28.140Z,5.53
2019-03-05T15:02:57.847Z,5.95
2019-03-05T15:05:27.513Z,5.62
2019-03-05T15:07:57.129Z,4.87
2019-03-05T15:10:26.710Z,7.35
2019-03-05T15:12:56.288Z,8.08
2019-03-05T15:15:28.482Z,10.13
2019-03-05T15:18:22.776Z,7.00
2019-03-05T15:20:52.359Z,6.45
2019-03-05T15:23:22.057Z,7.33
2019-03-05T15:28:24.841Z,10.32
2019-03-05T15:30:54.461Z,6.20
2019-03-05T15:33:24.106Z,9.18
2019-03-05T15:35:53.722Z,6.75
2019-03-05T15:38:23.318Z,6.97
2019-03-05T15:40:53.088Z,8.25
2019-03-05T15:43:22.709Z,9.40
2019-03-05T15:45:52.257Z,10.63
2019-03-05T15:48:21.915Z,9.23
2019-03-05T15:50:51.478Z,8.78
2019-03-05T15:53:21.091Z,9.20
2019-03-05T15:55:50.751Z,12.75
2019-03-05T15:58:20.354Z,10.50
2019-03-05T16:00:50.066Z,9.75
2019-03-05T16:03:19.824Z,14.98
2019-03-05T16:05:49.556Z,11.22
2019-03-05T16:08:20.988Z,8.28
2019-03-05T16:10:54.082Z,14.50
2019-03-05T16:13:21.671Z,7.83
2019-03-05T16:15:51.263Z,7.97
2019-03-05T16:18:20.934Z,9.55
2019-03-05T16:20:50.692Z,12.82
2019-03-05T16:23:20.285Z,10.43
2019-03-05T16:25:51.889Z,7.55
2019-03-05T16:28:21.691Z,8.55
2019-03-05T16:30:58.679Z,8.48
2019-03-05T16:33:36.919Z,9.33
2019-03-05T16:36:05.607Z,11.97
2019-03-05T16:38:51.082Z,9.98
2019-03-05T16:41:24.008Z,11.60
2019-03-05T16:44:01.310Z,7.75
2019-03-05T16:46:44.627Z,11.33
2019-03-05T16:49:27.832Z,10.40
2019-03-05T16:51:59.175Z,11.08
2019-03-05T16:54:46.728Z,11.80
2019-03-05T16:57:23.859Z,9.75
2019-03-05T16:59:55.088Z,10.55
2019-03-05T17:02:26.398Z,9.73
2019-03-05T17:04:57.743Z,9.60
2019-03-05T17:07:46.171Z,9.15
2019-03-05T17:10:34.346Z,10.30
2019-03-05T17:13:04.198Z,8.13
2019-03-05T17:15:33.808Z,10.43
2019-03-05T17:18:03.414Z,11.08
2019-03-05T17:20:33.134Z,11.35
2019-03-05T17:23:02.791Z,7.35
2019-03-05T17:25:32.664Z,10.72
2019-03-05T17:28:02.373Z,9.63
2019-03-05T17:30:32.018Z,9.73
2019-03-05T17:33:01.794Z,8.23
2019-03-05T17:35:31.770Z,12.25
2019-03-05T17:38:01.358Z,11.57
2019-03-05T17:40:30.987Z,7.72
2019-03-05T17:43:00.552Z,8.43
2019-03-05T17:45:30.356Z,8.63
2019-03-05T17:47:59.919Z,12.70
2019-03-05T17:50:29.587Z,15.00
2019-03-05T17:52:59.308Z,11.50
2019-03-05T17:55:29.055Z,13.50
2019-03-05T17:57:58.932Z,8.83
2019-03-05T18:00:32.863Z,8.18
2019-03-05T18:03:02.661Z,10.48
2019-03-05T18:05:32.379Z,8.95
2019-03-05T18:08:02.071Z,12.05
2019-03-05T18:10:31.726Z,12.78
2019-03-05T18:13:01.323Z,12.43
2019-03-05T18:15:31.446Z,11.00
2019-03-05T18:18:01.028Z,10.35
2019-03-05T18:20:30.818Z,9.15
2019-03-05T18:23:00.423Z,13.72
2019-03-05T18:25:30.011Z,9.30
2019-03-05T18:27:59.705Z,10.50
2019-03-05T18:30:30.622Z,6.70
2019-03-05T18:33:00.619Z,8.13
2019-03-05T18:35:30.219Z,9.30
2019-03-05T18:37:59.873Z,8.30
2019-03-05T18:40:29.498Z,10.32
2019-03-05T18:42:59.154Z,8.93
2019-03-05T18:45:31.464Z,9.30
2019-03-05T18:48:01.210Z,9.40
2019-03-05T18:50:30.881Z,11.75
2019-03-05T18:53:04.804Z,9.08
2019-03-05T18:55:34.460Z,12.15
2019-03-05T18:58:04.189Z,10.08
2019-03-05T19:00:34.847Z,12.85
2019-03-05T19:03:09.974Z,11.78
2019-03-05T19:05:39.775Z,8.03
2019-03-05T19:08:09.439Z,9.55
2019-03-05T19:10:39.205Z,8.25
2019-03-05T19:13:08.883Z,8.48
2019-03-05T19:15:38.458Z,8.08
2019-03-05T19:18:08.439Z,7.45
2019-03-05T19:20:38.048Z,4.97
2019-03-05T19:23:07.932Z,7.20
2019-03-05T19:25:43.299Z,9.10
2019-03-05T19:28:13.246Z,9.15
2019-03-05T19:30:51.358Z,9.60
2019-03-05T19:33:21.150Z,11.80
2019-03-05T19:35:50.803Z,8.38
2019-03-05T19:38:20.667Z,8.65
2019-03-05T19:40:50.365Z,8.10
2019-03-05T19:43:20.007Z,8.55
2019-03-05T19:45:49.611Z,9.70
2019-03-05T19:48:19.270Z,14.60
2019-03-05T19:50:48.855Z,7.65
2019-03-05T19:53:18.498Z,9.80
2019-03-05T19:55:48.166Z,8.08
2019-03-05T19:58:17.783Z,12.30
2019-03-05T20:00:53.353Z,9.33
2019-03-05T20:03:22.984Z,21.62
2019-03-05T20:05:52.577Z,13.62
2019-03-05T20:08:22.511Z,14.38
2019-03-05T20:10:52.212Z,7.10
2019-03-05T20:13:21.862Z,11.65
2019-03-05T20:15:51.481Z,7.42
2019-03-05T20:18:21.132Z,9.38
2019-03-05T20:20:50.739Z,13.72
2019-03-05T20:23:20.359Z,12.63
2019-03-05T20:25:50.156Z,10.28
2019-03-05T20:28:19.795Z,9.85
2019-03-05T20:30:49.412Z,6.85
2019-03-05T20:33:19.006Z,11.33
2019-03-05T20:35:48.927Z,11.15
2019-03-05T20:38:18.548Z,10.72
2019-03-05T20:40:48.157Z,8.48
2019-03-05T20:43:17.749Z,12.90
2019-03-05T20:45:50.782Z,7.60
2019-03-05T20:48:20.443Z,9.60
2019-03-05T20:50:50.051Z,8.05
2019-03-05T20:53:19.715Z,9.65
2019-03-05T20:55:49.328Z,10.90
2019-03-05T20:58:18.975Z,8.43
2019-03-05T21:00:48.714Z,9.65
2019-03-05T21:03:18.311Z,9.28
2019-03-05T21:05:48.830Z,10.18
2019-03-05T21:08:18.422Z,14.30
2019-03-05T21:10:48.018Z,11.28
2019-03-05T21:13:17.709Z,10.68
2019-03-05T21:15:47.319Z,11.57
2019-03-05T21:18:19.543Z,13.93
2019-03-05T21:20:49.670Z,10.90
2019-03-05T21:23:19.369Z,10.65
2019-03-05T21:25:49.075Z,12.93
2019-03-05T21:28:18.664Z,13.53
2019-03-05T21:30:48.407Z,12.80
2019-03-05T21:33:18.004Z,12.88
2019-03-05T21:35:48.340Z,15.85
2019-03-05T21:38:18.052Z,14.73
2019-03-05T21:40:47.650Z,11.35
2019-03-05T21:43:17.272Z,14.38
2019-03-05T21:45:50.342Z,13.55
2019-03-05T21:48:19.948Z,14.55
2019-03-05T21:50:49.619Z,16.13
2019-03-05T21:53:19.327Z,16.57
2019-03-05T21:55:48.931Z,19.95
2019-03-05T21:58:19.207Z,17.87
2019-03-05T22:00:48.803Z,13.38
2019-03-05T22:03:18.406Z,15.50
2019-03-05T22:05:48.007Z,16.55
2019-03-05T22:08:17.688Z,18.87
2019-03-05T22:10:47.275Z,19.00
2019-03-05T22:13:16.887Z,16.75
2019-03-05T22:15:46.478Z,15.58
2019-03-05T22:18:16.096Z,16.62
2019-03-05T22:20:46.083Z,18.82
2019-03-05T22:23:15.901Z,20.97
2019-03-05T22:25:45.474Z,19.05
2019-03-05T22:28:15.074Z,11.73
2019-03-05T22:30:44.671Z,19.00
2019-03-05T22:33:14.275Z,17.45
2019-03-05T22:35:43.876Z,18.60
2019-03-05T22:38:13.488Z,18.27
2019-03-05T22:40:43.171Z,20.17
2019-03-05T22:43:12.786Z,22.30
2019-03-05T22:45:42.405Z,16.37
2019-03-05T22:48:11.999Z,20.55
2019-03-05T22:50:41.593Z,19.52
2019-03-05T22:53:11.274Z,14.33
2019-03-05T22:55:41.261Z,16.15
2019-03-05T22:58:10.863Z,14.60
2019-03-05T23:00:50.771Z,18.37
2019-03-05T23:03:29.068Z,18.48
2019-03-05T23:05:59.811Z,14.47
2019-03-05T23:08:29.406Z,17.00
2019-03-05T23:10:59.250Z,18.95
2019-03-05T23:13:29.097Z,18.07
2019-03-05T23:15:59.362Z,14.25
2019-03-05T23:18:28.968Z,16.55
2019-03-05T23:20:58.562Z,19.25
2019-03-05T23:23:30.088Z,13.10
2019-03-05T23:25:59.854Z,11.73
2019-03-05T23:28:29.531Z,15.13
2019-03-05T23:30:59.137Z,14.80
2019-03-05T23:33:28.737Z,13.65
2019-03-05T23:35:58.319Z,12.05
2019-03-05T23:38:27.926Z,15.03
2019-03-05T23:40:57.583Z,14.40
2019-03-05T23:43:27.191Z,13.38
2019-03-05T23:45:56.854Z,15.32
2019-03-05T23:48:26.463Z,17.70
2019-03-05T23:50:56.059Z,12.03
2019-03-05T23:53:25.663Z,14.25
2019-03-05T23:55:55.251Z,15.23
2019-03-05T23:58:25.262Z,14.78
